Details From RJOA - Hiroshima
To ROAH - Naha
Flight Number -
Tags Generated
Created
Modified
Stats Distance 564 nm / 1,045 km
Max Altitude 0 ft / 0 m
Waypoints 4
Social Downloads 2
Likes 0
Share VATSIM

Download

Looking for another format? Having issues loading an existing format? Contact us
Advertisement - Login to hide

Notes

Generated

Route

RJOA BOMAP KAD96 ROAH

ID Type Via Altitude Latitude Longitude Leg Dist Tot Dist Heading (true) Name
O RJOA APT - 0 ft / 0 m 34.43603˚ 132.90312˚ - 0 nm - -
BOMAP FIX - 0 ft / 0 m 30.00366˚ 129.82446˚ 308 nm 308 nm 211° / 210° -
KAD96 FIX - 0 ft / 0 m 26.30414˚ 127.69621˚ 249 nm 557 nm 207° / 206° -
O ROAH APT - 0 ft / 0 m 26.20934˚ 127.64523˚ 6 nm 564 nm 206° / 206° -

Altitude Profile

Advertisement - Login to hide

Weather


0- 5 10 15 20 25 30 35+ Temperature / ° C

Clouds and Precipitation
Forecast for 2018-05-20 12:00 UTC. Updated 3 hours ago

Ground ~20,000 ft ~40,000 ft Winds

RJOA

Details ICAO RJOA (HIJ)
Name HIROSHIMA
Region Japan
Timezone Asia/Tokyo (UTC+9.0)
Stats Elevation 1,088 ft / 332 m (AMSL)
Location 34.436025° 132.919444°
Runways 1
Magnetic Variation 7.727° W

METAR

RJOA 201300Z 10006KT CAVOK 15/10 Q1019

Decode

TAF

TAF RJOA 201106Z 2012/2118 07010KT 9999 FEW030 SCT045

Decode

Departure Runways

ID Width Length Bearing (true) Bearing (mag) Surface Threshold Offset Overrun Length
10 200 ft / 61 m 9,823 ft / 2,994 m 89.99° 97.72° Asphalt 0 ft / 0 m 210 ft / 64 m
28 200 ft / 61 m 9,823 ft / 2,994 m 270.01° 277.74° Asphalt 0 ft / 0 m 210 ft / 64 m

ROAH

Details ICAO ROAH (OKA)
Name NAHA
Region Japan
Timezone Asia/Tokyo (UTC+9.0)
Stats Elevation 12 ft / 4 m (AMSL)
Location 26.195815° 127.645868°
Runways 1
Magnetic Variation 5.268° W

METAR

ROAH 201400Z 22008KT 9999 FEW010 BKN070 26/23 Q1010 RMK 1CU010 6AC070 A2983

Decode

TAF

TAF ROAH 201109Z 2012/2118 22010KT 9999 FEW008 BKN015 TEMPO 2021/2100 4000 TSRA SCT006 BKN010 FEW020CB BECMG 2022/2100 30012KT BECMG 2112/2115 01008KT

Decode

Destination Runways

ID Width Length Bearing (true) Bearing (mag) Surface Threshold Offset Overrun Length
18 150 ft / 46 m 9,881 ft / 3,012 m 177.59° 182.86° Asphalt 138 ft / 42 m 640 ft / 195 m
36 150 ft / 46 m 9,881 ft / 3,012 m 357.59° 2.86° Asphalt 0 ft / 0 m 509 ft / 155 m

Approach Navaids

Runway Type Ident Frequency Range Bearing (true) Bearing (mag) Slope Elevation
36 Localiser IOK 110.30 MHz 18 nm / 33 km 356.78° 2.05° - 52 ft / 16 m (AMSL)
36 Glidescope IOK 110.30 MHz 10 nm / 19 km 357.59° 2.86° 2.75° 52 ft / 16 m (AMSL)
36 DME IOK 110.30 MHz 18 nm / 33 km - - - 31 ft / 9 m (AMSL)

Popular Alternatives